sensor_id;sensor_type;location;lat;lon;timestamp;P1;durP1;ratioP1;P2;durP2;ratioP2
76210;SDS011;65003;49.518;11.280;2023-02-01T00:00:30;4.10;;;2.73;;
76210;SDS011;65003;49.518;11.280;2023-02-01T00:02:56;3.87;;;3.23;;
76210;SDS011;65003;49.518;11.280;2023-02-01T00:05:23;8.10;;;3.60;;
76210;SDS011;65003;49.518;11.280;2023-02-01T00:07:50;5.53;;;3.33;;
76210;SDS011;65003;49.518;11.280;2023-02-01T00:10:16;5.33;;;3.53;;
76210;SDS011;65003;49.518;11.280;2023-02-01T00:12:43;4.93;;;3.37;;
76210;SDS011;65003;49.518;11.280;2023-02-01T00:15:09;4.87;;;3.00;;
76210;SDS011;65003;49.518;11.280;2023-02-01T00:17:36;4.83;;;3.60;;
76210;SDS011;65003;49.518;11.280;2023-02-01T00:20:03;3.50;;;3.20;;
76210;SDS011;65003;49.518;11.280;2023-02-01T00:22:29;4.83;;;3.73;;
76210;SDS011;65003;49.518;11.280;2023-02-01T00:24:56;7.03;;;3.73;;
76210;SDS011;65003;49.518;11.280;2023-02-01T00:27:23;5.10;;;4.10;;
76210;SDS011;65003;49.518;11.280;2023-02-01T00:29:49;5.63;;;3.77;;
76210;SDS011;65003;49.518;11.280;2023-02-01T00:32:16;4.80;;;3.67;;
76210;SDS011;65003;49.518;11.280;2023-02-01T00:34:42;5.80;;;4.37;;
76210;SDS011;65003;49.518;11.280;2023-02-01T00:37:09;6.63;;;4.20;;
76210;SDS011;65003;49.518;11.280;2023-02-01T00:39:35;5.17;;;4.10;;
76210;SDS011;65003;49.518;11.280;2023-02-01T00:42:02;6.83;;;4.40;;
76210;SDS011;65003;49.518;11.280;2023-02-01T00:44:29;5.00;;;4.43;;
76210;SDS011;65003;49.518;11.280;2023-02-01T00:46:55;6.57;;;4.33;;
76210;SDS011;65003;49.518;11.280;2023-02-01T00:49:22;7.03;;;4.80;;
76210;SDS011;65003;49.518;11.280;2023-02-01T00:51:48;9.03;;;4.83;;
76210;SDS011;65003;49.518;11.280;2023-02-01T00:54:15;6.67;;;4.33;;
76210;SDS011;65003;49.518;11.280;2023-02-01T00:56:42;7.13;;;4.40;;
76210;SDS011;65003;49.518;11.280;2023-02-01T00:59:11;6.77;;;4.53;;
76210;SDS011;65003;49.518;11.280;2023-02-01T01:01:38;5.07;;;4.33;;
76210;SDS011;65003;49.518;11.280;2023-02-01T01:04:04;5.80;;;4.87;;
76210;SDS011;65003;49.518;11.280;2023-02-01T01:06:32;6.13;;;4.40;;
76210;SDS011;65003;49.518;11.280;2023-02-01T01:08:58;5.70;;;3.90;;
76210;SDS011;65003;49.518;11.280;2023-02-01T01:11:25;4.70;;;4.20;;
76210;SDS011;65003;49.518;11.280;2023-02-01T01:13:51;5.30;;;4.40;;
76210;SDS011;65003;49.518;11.280;2023-02-01T01:16:17;6.43;;;3.77;;
76210;SDS011;65003;49.518;11.280;2023-02-01T01:18:44;6.80;;;4.33;;
76210;SDS011;65003;49.518;11.280;2023-02-01T01:21:11;4.23;;;3.83;;
76210;SDS011;65003;49.518;11.280;2023-02-01T01:23:37;4.73;;;4.10;;
76210;SDS011;65003;49.518;11.280;2023-02-01T01:26:06;5.53;;;3.47;;
76210;SDS011;65003;49.518;11.280;2023-02-01T01:28:32;6.13;;;3.80;;
76210;SDS011;65003;49.518;11.280;2023-02-01T01:30:59;4.97;;;3.67;;
76210;SDS011;65003;49.518;11.280;2023-02-01T01:33:25;6.87;;;3.90;;
76210;SDS011;65003;49.518;11.280;2023-02-01T01:35:52;5.17;;;3.40;;
76210;SDS011;65003;49.518;11.280;2023-02-01T01:38:18;4.07;;;3.17;;
76210;SDS011;65003;49.518;11.280;2023-02-01T01:40:45;8.10;;;5.00;;
76210;SDS011;65003;49.518;11.280;2023-02-01T01:43:14;6.37;;;3.90;;
76210;SDS011;65003;49.518;11.280;2023-02-01T01:45:40;4.87;;;4.07;;
76210;SDS011;65003;49.518;11.280;2023-02-01T01:48:08;4.83;;;3.43;;
76210;SDS011;65003;49.518;11.280;2023-02-01T01:50:35;6.20;;;4.20;;
76210;SDS011;65003;49.518;11.280;2023-02-01T01:53:00;5.13;;;4.57;;
76210;SDS011;65003;49.518;11.280;2023-02-01T01:55:27;5.30;;;4.20;;
76210;SDS011;65003;49.518;11.280;2023-02-01T01:57:57;4.70;;;4.27;;
76210;SDS011;65003;49.518;11.280;2023-02-01T02:00:25;5.80;;;4.13;;
76210;SDS011;65003;49.518;11.280;2023-02-01T02:02:54;4.97;;;4.33;;
76210;SDS011;65003;49.518;11.280;2023-02-01T02:05:19;6.03;;;4.03;;
76210;SDS011;65003;49.518;11.280;2023-02-01T02:07:46;7.40;;;4.50;;
76210;SDS011;65003;49.518;11.280;2023-02-01T02:10:12;5.27;;;4.03;;
76210;SDS011;65003;49.518;11.280;2023-02-01T02:12:39;5.73;;;4.07;;
76210;SDS011;65003;49.518;11.280;2023-02-01T02:15:06;6.27;;;4.37;;
76210;SDS011;65003;49.518;11.280;2023-02-01T02:17:36;6.00;;;4.17;;
76210;SDS011;65003;49.518;11.280;2023-02-01T02:20:08;6.03;;;4.13;;
76210;SDS011;65003;49.518;11.280;2023-02-01T02:23:22;4.93;;;4.40;;
76210;SDS011;65003;49.518;11.280;2023-02-01T02:25:43;6.47;;;4.03;;
76210;SDS011;65003;49.518;11.280;2023-02-01T02:31:49;4.90;;;4.13;;
76210;SDS011;65003;49.518;11.280;2023-02-01T02:34:18;4.67;;;4.07;;
76210;SDS011;65003;49.518;11.280;2023-02-01T02:39:45;5.70;;;3.77;;
76210;SDS011;65003;49.518;11.280;2023-02-01T02:42:13;6.47;;;4.00;;
76210;SDS011;65003;49.518;11.280;2023-02-01T02:44:49;4.87;;;3.60;;
76210;SDS011;65003;49.518;11.280;2023-02-01T02:47:23;4.23;;;3.80;;
76210;SDS011;65003;49.518;11.280;2023-02-01T02:49:57;4.33;;;3.77;;
76210;SDS011;65003;49.518;11.280;2023-02-01T02:52:40;4.93;;;3.47;;
76210;SDS011;65003;49.518;11.280;2023-02-01T02:55:11;5.03;;;3.63;;
76210;SDS011;65003;49.518;11.280;2023-02-01T02:57:38;4.87;;;3.87;;
76210;SDS011;65003;49.518;11.280;2023-02-01T03:00:11;7.63;;;3.80;;
76210;SDS011;65003;49.518;11.280;2023-02-01T03:02:42;5.23;;;3.53;;
76210;SDS011;65003;49.518;11.280;2023-02-01T03:05:15;5.37;;;4.20;;
76210;SDS011;65003;49.518;11.280;2023-02-01T03:07:45;4.83;;;3.70;;
76210;SDS011;65003;49.518;11.280;2023-02-01T03:10:24;7.03;;;3.97;;
76210;SDS011;65003;49.518;11.280;2023-02-01T03:12:50;3.30;;;3.00;;
76210;SDS011;65003;49.518;11.280;2023-02-01T03:15:23;5.27;;;4.00;;
76210;SDS011;65003;49.518;11.280;2023-02-01T03:17:50;6.20;;;3.67;;
76210;SDS011;65003;49.518;11.280;2023-02-01T03:20:17;4.77;;;3.57;;
76210;SDS011;65003;49.518;11.280;2023-02-01T03:22:43;5.20;;;3.40;;
76210;SDS011;65003;49.518;11.280;2023-02-01T03:25:12;7.03;;;3.40;;
76210;SDS011;65003;49.518;11.280;2023-02-01T03:27:41;4.40;;;3.67;;
76210;SDS011;65003;49.518;11.280;2023-02-01T03:32:50;4.10;;;3.30;;
76210;SDS011;65003;49.518;11.280;2023-02-01T03:35:24;3.87;;;3.47;;
76210;SDS011;65003;49.518;11.280;2023-02-01T03:38:20;5.07;;;4.00;;
76210;SDS011;65003;49.518;11.280;2023-02-01T03:40:46;4.30;;;3.27;;
76210;SDS011;65003;49.518;11.280;2023-02-01T03:43:13;5.13;;;3.77;;
76210;SDS011;65003;49.518;11.280;2023-02-01T03:45:40;4.50;;;3.47;;
76210;SDS011;65003;49.518;11.280;2023-02-01T03:48:05;4.90;;;4.17;;
76210;SDS011;65003;49.518;11.280;2023-02-01T03:50:32;5.10;;;3.67;;
76210;SDS011;65003;49.518;11.280;2023-02-01T03:53:02;6.43;;;4.90;;
76210;SDS011;65003;49.518;11.280;2023-02-01T03:55:33;6.07;;;3.97;;
76210;SDS011;65003;49.518;11.280;2023-02-01T03:58:06;5.93;;;4.00;;
76210;SDS011;65003;49.518;11.280;2023-02-01T04:00:35;6.20;;;4.20;;
76210;SDS011;65003;49.518;11.280;2023-02-01T04:03:02;4.83;;;4.30;;
76210;SDS011;65003;49.518;11.280;2023-02-01T04:05:28;4.80;;;3.67;;
76210;SDS011;65003;49.518;11.280;2023-02-01T04:07:54;6.53;;;4.37;;
76210;SDS011;65003;49.518;11.280;2023-02-01T04:10:21;4.10;;;3.70;;
76210;SDS011;65003;49.518;11.280;2023-02-01T04:12:48;5.67;;;4.20;;
76210;SDS011;65003;49.518;11.280;2023-02-01T04:15:14;7.63;;;4.47;;
76210;SDS011;65003;49.518;11.280;2023-02-01T04:17:41;4.73;;;4.23;;
76210;SDS011;65003;49.518;11.280;2023-02-01T04:20:08;5.60;;;4.17;;
76210;SDS011;65003;49.518;11.280;2023-02-01T04:22:35;9.63;;;4.93;;
76210;SDS011;65003;49.518;11.280;2023-02-01T04:25:02;5.77;;;4.20;;
76210;SDS011;65003;49.518;11.280;2023-02-01T04:27:30;7.13;;;4.70;;
76210;SDS011;65003;49.518;11.280;2023-02-01T04:29:57;7.53;;;4.87;;
76210;SDS011;65003;49.518;11.280;2023-02-01T04:32:23;5.90;;;4.50;;
76210;SDS011;65003;49.518;11.280;2023-02-01T04:34:50;5.17;;;4.60;;
76210;SDS011;65003;49.518;11.280;2023-02-01T04:37:16;6.23;;;4.90;;
76210;SDS011;65003;49.518;11.280;2023-02-01T04:39:43;11.43;;;5.50;;
76210;SDS011;65003;49.518;11.280;2023-02-01T04:42:09;10.17;;;5.50;;
76210;SDS011;65003;49.518;11.280;2023-02-01T04:44:36;10.20;;;5.70;;
76210;SDS011;65003;49.518;11.280;2023-02-01T04:47:03;10.57;;;5.40;;
76210;SDS011;65003;49.518;11.280;2023-02-01T04:49:29;6.97;;;4.83;;
76210;SDS011;65003;49.518;11.280;2023-02-01T04:51:56;6.97;;;5.27;;
76210;SDS011;65003;49.518;11.280;2023-02-01T04:54:22;7.23;;;5.40;;
76210;SDS011;65003;49.518;11.280;2023-02-01T04:56:49;7.40;;;5.80;;
76210;SDS011;65003;49.518;11.280;2023-02-01T04:59:15;6.77;;;5.90;;
76210;SDS011;65003;49.518;11.280;2023-02-01T05:01:42;7.50;;;4.87;;
76210;SDS011;65003;49.518;11.280;2023-02-01T05:04:09;6.83;;;5.23;;
76210;SDS011;65003;49.518;11.280;2023-02-01T05:06:35;9.50;;;5.87;;
76210;SDS011;65003;49.518;11.280;2023-02-01T05:09:02;8.37;;;6.20;;
76210;SDS011;65003;49.518;11.280;2023-02-01T05:11:28;6.90;;;5.70;;
76210;SDS011;65003;49.518;11.280;2023-02-01T05:14:01;7.00;;;6.13;;
76210;SDS011;65003;49.518;11.280;2023-02-01T05:16:27;10.17;;;6.33;;
76210;SDS011;65003;49.518;11.280;2023-02-01T05:18:54;6.07;;;5.23;;
76210;SDS011;65003;49.518;11.280;2023-02-01T05:21:21;10.23;;;6.00;;
76210;SDS011;65003;49.518;11.280;2023-02-01T05:23:47;6.23;;;5.20;;
76210;SDS011;65003;49.518;11.280;2023-02-01T05:26:35;7.87;;;5.97;;
76210;SDS011;65003;49.518;11.280;2023-02-01T05:29:01;8.57;;;6.10;;
76210;SDS011;65003;49.518;11.280;2023-02-01T05:31:28;6.33;;;5.03;;
76210;SDS011;65003;49.518;11.280;2023-02-01T05:33:54;7.37;;;5.83;;
76210;SDS011;65003;49.518;11.280;2023-02-01T05:36:21;6.57;;;5.83;;
76210;SDS011;65003;49.518;11.280;2023-02-01T05:38:47;9.63;;;5.20;;
76210;SDS011;65003;49.518;11.280;2023-02-01T05:41:14;5.80;;;5.13;;
76210;SDS011;65003;49.518;11.280;2023-02-01T05:43:40;7.97;;;5.13;;
76210;SDS011;65003;49.518;11.280;2023-02-01T05:46:07;8.90;;;5.60;;
76210;SDS011;65003;49.518;11.280;2023-02-01T05:48:34;8.43;;;5.47;;
76210;SDS011;65003;49.518;11.280;2023-02-01T05:51:00;7.23;;;4.97;;
76210;SDS011;65003;49.518;11.280;2023-02-01T05:53:27;14.70;;;6.00;;
76210;SDS011;65003;49.518;11.280;2023-02-01T05:55:53;14.33;;;6.75;;
76210;SDS011;65003;49.518;11.280;2023-02-01T05:58:20;9.77;;;4.30;;
76210;SDS011;65003;49.518;11.280;2023-02-01T06:00:47;9.00;;;3.63;;
76210;SDS011;65003;49.518;11.280;2023-02-01T06:03:13;9.27;;;2.90;;
76210;SDS011;65003;49.518;11.280;2023-02-01T06:05:40;4.23;;;2.53;;
76210;SDS011;65003;49.518;11.280;2023-02-01T06:08:06;6.53;;;2.47;;
76210;SDS011;65003;49.518;11.280;2023-02-01T06:10:33;8.73;;;2.70;;
76210;SDS011;65003;49.518;11.280;2023-02-01T06:13:00;13.53;;;2.40;;
76210;SDS011;65003;49.518;11.280;2023-02-01T06:15:26;4.47;;;1.80;;
76210;SDS011;65003;49.518;11.280;2023-02-01T06:17:53;1.63;;;1.30;;
76210;SDS011;65003;49.518;11.280;2023-02-01T06:20:20;4.07;;;1.77;;
76210;SDS011;65003;49.518;11.280;2023-02-01T06:22:46;3.50;;;1.40;;
76210;SDS011;65003;49.518;11.280;2023-02-01T06:25:12;7.20;;;2.20;;
76210;SDS011;65003;49.518;11.280;2023-02-01T06:27:39;4.77;;;2.00;;
76210;SDS011;65003;49.518;11.280;2023-02-01T06:30:06;4.30;;;1.80;;
76210;SDS011;65003;49.518;11.280;2023-02-01T06:32:33;4.53;;;2.13;;
76210;SDS011;65003;49.518;11.280;2023-02-01T06:35:00;1.90;;;1.67;;
76210;SDS011;65003;49.518;11.280;2023-02-01T06:37:26;2.37;;;1.73;;
76210;SDS011;65003;49.518;11.280;2023-02-01T06:39:53;2.47;;;1.80;;
76210;SDS011;65003;49.518;11.280;2023-02-01T06:42:20;2.73;;;1.87;;
76210;SDS011;65003;49.518;11.280;2023-02-01T06:44:46;3.20;;;2.07;;
76210;SDS011;65003;49.518;11.280;2023-02-01T06:47:13;3.57;;;1.80;;
76210;SDS011;65003;49.518;11.280;2023-02-01T06:49:40;1.97;;;1.33;;
76210;SDS011;65003;49.518;11.280;2023-02-01T06:52:06;3.43;;;1.70;;
76210;SDS011;65003;49.518;11.280;2023-02-01T06:54:33;1.80;;;1.70;;
76210;SDS011;65003;49.518;11.280;2023-02-01T06:56:59;1.93;;;1.70;;
76210;SDS011;65003;49.518;11.280;2023-02-01T06:59:26;2.30;;;1.83;;
76210;SDS011;65003;49.518;11.280;2023-02-01T07:01:52;2.53;;;1.63;;
76210;SDS011;65003;49.518;11.280;2023-02-01T07:04:19;2.13;;;1.90;;
76210;SDS011;65003;49.518;11.280;2023-02-01T07:06:46;1.67;;;1.53;;
76210;SDS011;65003;49.518;11.280;2023-02-01T07:09:12;2.87;;;1.80;;
76210;SDS011;65003;49.518;11.280;2023-02-01T07:11:39;1.87;;;1.30;;
76210;SDS011;65003;49.518;11.280;2023-02-01T07:14:06;2.30;;;1.53;;
76210;SDS011;65003;49.518;11.280;2023-02-01T07:16:33;1.97;;;1.50;;
76210;SDS011;65003;49.518;11.280;2023-02-01T07:18:59;2.30;;;1.50;;
76210;SDS011;65003;49.518;11.280;2023-02-01T07:21:26;1.70;;;1.60;;
76210;SDS011;65003;49.518;11.280;2023-02-01T07:23:52;2.90;;;1.80;;
76210;SDS011;65003;49.518;11.280;2023-02-01T07:26:19;2.53;;;2.33;;
76210;SDS011;65003;49.518;11.280;2023-02-01T07:28:45;2.53;;;1.63;;
76210;SDS011;65003;49.518;11.280;2023-02-01T07:31:13;2.00;;;1.80;;
76210;SDS011;65003;49.518;11.280;2023-02-01T07:33:39;3.70;;;2.20;;
76210;SDS011;65003;49.518;11.280;2023-02-01T07:36:07;2.33;;;2.13;;
76210;SDS011;65003;49.518;11.280;2023-02-01T07:38:33;2.53;;;1.70;;
76210;SDS011;65003;49.518;11.280;2023-02-01T07:41:00;2.60;;;1.90;;
76210;SDS011;65003;49.518;11.280;2023-02-01T07:43:27;5.80;;;1.80;;
76210;SDS011;65003;49.518;11.280;2023-02-01T07:45:53;2.63;;;1.67;;
76210;SDS011;65003;49.518;11.280;2023-02-01T07:48:20;2.10;;;1.90;;
76210;SDS011;65003;49.518;11.280;2023-02-01T07:50:46;2.20;;;1.90;;
76210;SDS011;65003;49.518;11.280;2023-02-01T07:53:12;3.27;;;2.20;;
76210;SDS011;65003;49.518;11.280;2023-02-01T07:55:39;2.33;;;2.13;;
76210;SDS011;65003;49.518;11.280;2023-02-01T07:58:06;4.10;;;2.23;;
76210;SDS011;65003;49.518;11.280;2023-02-01T08:00:32;4.20;;;2.20;;
76210;SDS011;65003;49.518;11.280;2023-02-01T08:03:04;3.73;;;1.80;;
76210;SDS011;65003;49.518;11.280;2023-02-01T08:05:31;3.00;;;1.90;;
76210;SDS011;65003;49.518;11.280;2023-02-01T08:07:58;4.73;;;1.90;;
76210;SDS011;65003;49.518;11.280;2023-02-01T08:10:24;4.97;;;2.43;;
76210;SDS011;65003;49.518;11.280;2023-02-01T08:12:51;3.20;;;2.13;;
76210;SDS011;65003;49.518;11.280;2023-02-01T08:15:18;3.57;;;2.20;;
76210;SDS011;65003;49.518;11.280;2023-02-01T08:17:48;2.27;;;1.70;;
76210;SDS011;65003;49.518;11.280;2023-02-01T08:20:14;5.40;;;1.80;;
76210;SDS011;65003;49.518;11.280;2023-02-01T08:22:41;4.10;;;2.10;;
76210;SDS011;65003;49.518;11.280;2023-02-01T08:25:08;3.63;;;1.97;;
76210;SDS011;65003;49.518;11.280;2023-02-01T08:27:35;4.50;;;2.00;;
76210;SDS011;65003;49.518;11.280;2023-02-01T08:30:01;3.60;;;2.43;;
76210;SDS011;65003;49.518;11.280;2023-02-01T08:32:27;4.53;;;2.07;;
76210;SDS011;65003;49.518;11.280;2023-02-01T08:34:54;4.90;;;2.10;;
76210;SDS011;65003;49.518;11.280;2023-02-01T08:37:21;5.87;;;2.70;;
76210;SDS011;65003;49.518;11.280;2023-02-01T08:39:47;5.90;;;2.10;;
76210;SDS011;65003;49.518;11.280;2023-02-01T08:42:14;2.97;;;2.13;;
76210;SDS011;65003;49.518;11.280;2023-02-01T08:44:46;4.97;;;2.77;;
76210;SDS011;65003;49.518;11.280;2023-02-01T08:47:13;3.90;;;2.17;;
76210;SDS011;65003;49.518;11.280;2023-02-01T08:49:39;6.07;;;2.53;;
76210;SDS011;65003;49.518;11.280;2023-02-01T08:52:06;3.47;;;2.10;;
76210;SDS011;65003;49.518;11.280;2023-02-01T08:54:32;4.47;;;2.30;;
76210;SDS011;65003;49.518;11.280;2023-02-01T08:56:59;2.90;;;2.10;;
76210;SDS011;65003;49.518;11.280;2023-02-01T08:59:26;5.63;;;2.40;;
76210;SDS011;65003;49.518;11.280;2023-02-01T09:01:53;5.47;;;2.20;;
76210;SDS011;65003;49.518;11.280;2023-02-01T09:04:19;3.73;;;2.00;;
76210;SDS011;65003;49.518;11.280;2023-02-01T09:06:46;6.33;;;2.77;;
76210;SDS011;65003;49.518;11.280;2023-02-01T09:09:13;4.10;;;2.20;;
76210;SDS011;65003;49.518;11.280;2023-02-01T09:11:39;3.50;;;1.87;;
76210;SDS011;65003;49.518;11.280;2023-02-01T09:14:06;2.43;;;1.80;;
76210;SDS011;65003;49.518;11.280;2023-02-01T09:16:32;2.67;;;1.87;;
76210;SDS011;65003;49.518;11.280;2023-02-01T09:18:59;5.63;;;2.60;;
76210;SDS011;65003;49.518;11.280;2023-02-01T09:21:26;3.33;;;2.23;;
76210;SDS011;65003;49.518;11.280;2023-02-01T09:23:52;6.17;;;2.60;;
76210;SDS011;65003;49.518;11.280;2023-02-01T09:26:19;5.37;;;2.00;;
76210;SDS011;65003;49.518;11.280;2023-02-01T09:28:45;4.37;;;2.00;;
76210;SDS011;65003;49.518;11.280;2023-02-01T09:31:12;4.33;;;2.50;;
76210;SDS011;65003;49.518;11.280;2023-02-01T09:33:38;5.60;;;2.20;;
76210;SDS011;65003;49.518;11.280;2023-02-01T09:36:05;3.63;;;1.87;;
76210;SDS011;65003;49.518;11.280;2023-02-01T09:38:32;3.67;;;2.50;;
76210;SDS011;65003;49.518;11.280;2023-02-01T09:40:59;4.93;;;2.00;;
76210;SDS011;65003;49.518;11.280;2023-02-01T09:43:35;4.10;;;2.33;;
76210;SDS011;65003;49.518;11.280;2023-02-01T09:48:48;7.57;;;3.13;;
76210;SDS011;65003;49.518;11.280;2023-02-01T09:51:16;9.10;;;2.37;;
76210;SDS011;65003;49.518;11.280;2023-02-01T09:53:44;4.27;;;2.30;;
76210;SDS011;65003;49.518;11.280;2023-02-01T09:56:12;6.73;;;2.80;;
76210;SDS011;65003;49.518;11.280;2023-02-01T09:58:41;4.50;;;2.63;;
76210;SDS011;65003;49.518;11.280;2023-02-01T10:01:12;5.37;;;2.00;;
76210;SDS011;65003;49.518;11.280;2023-02-01T10:03:40;4.63;;;2.00;;
76210;SDS011;65003;49.518;11.280;2023-02-01T10:08:54;6.43;;;1.80;;
76210;SDS011;65003;49.518;11.280;2023-02-01T10:11:32;8.30;;;1.53;;
76210;SDS011;65003;49.518;11.280;2023-02-01T10:14:11;6.63;;;1.53;;
76210;SDS011;65003;49.518;11.280;2023-02-01T10:16:42;4.20;;;1.80;;
76210;SDS011;65003;49.518;11.280;2023-02-01T10:19:13;4.03;;;1.20;;
76210;SDS011;65003;49.518;11.280;2023-02-01T10:22:16;7.90;;;2.40;;
76210;SDS011;65003;49.518;11.280;2023-02-01T10:24:39;4.23;;;2.43;;
76210;SDS011;65003;49.518;11.280;2023-02-01T10:27:13;8.60;;;2.27;;
76210;SDS011;65003;49.518;11.280;2023-02-01T10:29:39;7.53;;;2.33;;
76210;SDS011;65003;49.518;11.280;2023-02-01T10:32:09;5.50;;;3.17;;
76210;SDS011;65003;49.518;11.280;2023-02-01T10:34:36;7.23;;;2.37;;
76210;SDS011;65003;49.518;11.280;2023-02-01T10:37:10;6.00;;;2.50;;
76210;SDS011;65003;49.518;11.280;2023-02-01T10:39:46;5.97;;;2.03;;
76210;SDS011;65003;49.518;11.280;2023-02-01T10:42:12;6.50;;;2.30;;
76210;SDS011;65003;49.518;11.280;2023-02-01T10:44:40;7.87;;;2.83;;
76210;SDS011;65003;49.518;11.280;2023-02-01T10:47:07;10.43;;;2.17;;
76210;SDS011;65003;49.518;11.280;2023-02-01T10:49:37;8.03;;;2.53;;
76210;SDS011;65003;49.518;11.280;2023-02-01T10:52:05;3.50;;;1.80;;
76210;SDS011;65003;49.518;11.280;2023-02-01T10:54:39;6.73;;;2.00;;
76210;SDS011;65003;49.518;11.280;2023-02-01T10:57:08;8.43;;;4.30;;
76210;SDS011;65003;49.518;11.280;2023-02-01T10:59:33;8.17;;;2.97;;
76210;SDS011;65003;49.518;11.280;2023-02-01T11:02:01;9.80;;;5.90;;
76210;SDS011;65003;49.518;11.280;2023-02-01T11:04:26;16.00;;;8.03;;
76210;SDS011;65003;49.518;11.280;2023-02-01T11:06:55;10.87;;;5.53;;
76210;SDS011;65003;49.518;11.280;2023-02-01T11:09:21;8.03;;;4.73;;
76210;SDS011;65003;49.518;11.280;2023-02-01T11:11:55;9.30;;;3.10;;
76210;SDS011;65003;49.518;11.280;2023-02-01T11:14:32;5.50;;;2.60;;
76210;SDS011;65003;49.518;11.280;2023-02-01T11:16:55;11.37;;;3.57;;
76210;SDS011;65003;49.518;11.280;2023-02-01T11:19:21;5.70;;;2.70;;
76210;SDS011;65003;49.518;11.280;2023-02-01T11:21:51;6.67;;;2.93;;
76210;SDS011;65003;49.518;11.280;2023-02-01T11:24:22;11.13;;;2.97;;
76210;SDS011;65003;49.518;11.280;2023-02-01T11:26:48;7.60;;;3.67;;
76210;SDS011;65003;49.518;11.280;2023-02-01T11:29:17;13.00;;;3.83;;
76210;SDS011;65003;49.518;11.280;2023-02-01T11:31:41;9.63;;;2.87;;
76210;SDS011;65003;49.518;11.280;2023-02-01T11:34:10;5.23;;;2.70;;
76210;SDS011;65003;49.518;11.280;2023-02-01T11:36:38;12.20;;;4.23;;
76210;SDS011;65003;49.518;11.280;2023-02-01T11:39:09;7.40;;;2.90;;
76210;SDS011;65003;49.518;11.280;2023-02-01T11:44:41;11.27;;;3.37;;
76210;SDS011;65003;49.518;11.280;2023-02-01T11:49:44;10.83;;;3.43;;
76210;SDS011;65003;49.518;11.280;2023-02-01T11:57:56;12.47;;;2.87;;
76210;SDS011;65003;49.518;11.280;2023-02-01T12:03:08;7.67;;;2.53;;
76210;SDS011;65003;49.518;11.280;2023-02-01T12:14:02;7.77;;;2.10;;
76210;SDS011;65003;49.518;11.280;2023-02-01T12:16:35;9.90;;;3.03;;
76210;SDS011;65003;49.518;11.280;2023-02-01T12:19:19;7.37;;;2.50;;
76210;SDS011;65003;49.518;11.280;2023-02-01T12:22:08;9.20;;;2.77;;
76210;SDS011;65003;49.518;11.280;2023-02-01T12:24:45;6.23;;;2.67;;
76210;SDS011;65003;49.518;11.280;2023-02-01T12:27:32;7.87;;;3.43;;
76210;SDS011;65003;49.518;11.280;2023-02-01T12:33:07;8.33;;;2.60;;
76210;SDS011;65003;49.518;11.280;2023-02-01T12:35:38;3.97;;;2.10;;
76210;SDS011;65003;49.518;11.280;2023-02-01T12:38:17;7.37;;;2.50;;
76210;SDS011;65003;49.518;11.280;2023-02-01T12:40:51;6.83;;;2.23;;
76210;SDS011;65003;49.518;11.280;2023-02-01T12:43:23;8.43;;;3.27;;
76210;SDS011;65003;49.518;11.280;2023-02-01T12:46:12;5.70;;;2.37;;
76210;SDS011;65003;49.518;11.280;2023-02-01T12:48:56;8.40;;;2.60;;
76210;SDS011;65003;49.518;11.280;2023-02-01T12:51:25;8.67;;;5.03;;
76210;SDS011;65003;49.518;11.280;2023-02-01T12:54:06;8.03;;;5.17;;
76210;SDS011;65003;49.518;11.280;2023-02-01T12:56:31;9.08;;;3.27;;
76210;SDS011;65003;49.518;11.280;2023-02-01T12:59:02;7.83;;;3.30;;
76210;SDS011;65003;49.518;11.280;2023-02-01T13:01:35;8.30;;;3.03;;
76210;SDS011;65003;49.518;11.280;2023-02-01T13:04:08;10.37;;;3.10;;
76210;SDS011;65003;49.518;11.280;2023-02-01T13:06:37;8.27;;;3.70;;
76210;SDS011;65003;49.518;11.280;2023-02-01T13:09:05;9.27;;;2.93;;
76210;SDS011;65003;49.518;11.280;2023-02-01T13:11:31;9.53;;;3.50;;
76210;SDS011;65003;49.518;11.280;2023-02-01T13:14:00;8.67;;;2.90;;
76210;SDS011;65003;49.518;11.280;2023-02-01T13:16:28;8.27;;;3.20;;
76210;SDS011;65003;49.518;11.280;2023-02-01T13:19:03;14.00;;;4.27;;
76210;SDS011;65003;49.518;11.280;2023-02-01T13:21:32;9.00;;;3.07;;
76210;SDS011;65003;49.518;11.280;2023-02-01T13:23:58;8.60;;;2.60;;
76210;SDS011;65003;49.518;11.280;2023-02-01T13:26:24;8.77;;;3.33;;
76210;SDS011;65003;49.518;11.280;2023-02-01T13:28:54;10.20;;;2.90;;
76210;SDS011;65003;49.518;11.280;2023-02-01T13:31:28;12.80;;;2.23;;
76210;SDS011;65003;49.518;11.280;2023-02-01T13:36:40;11.53;;;3.20;;
76210;SDS011;65003;49.518;11.280;2023-02-01T13:39:12;9.00;;;2.73;;
76210;SDS011;65003;49.518;11.280;2023-02-01T13:41:52;4.87;;;2.30;;
76210;SDS011;65003;49.518;11.280;2023-02-01T13:44:23;8.80;;;3.33;;
76210;SDS011;65003;49.518;11.280;2023-02-01T13:46:56;8.83;;;2.90;;
76210;SDS011;65003;49.518;11.280;2023-02-01T13:49:24;12.77;;;2.90;;
76210;SDS011;65003;49.518;11.280;2023-02-01T13:51:50;9.70;;;2.60;;
76210;SDS011;65003;49.518;11.280;2023-02-01T13:56:49;6.37;;;2.47;;
76210;SDS011;65003;49.518;11.280;2023-02-01T13:59:51;9.43;;;2.67;;
76210;SDS011;65003;49.518;11.280;2023-02-01T14:04:59;6.80;;;2.80;;
76210;SDS011;65003;49.518;11.280;2023-02-01T14:07:25;12.57;;;2.80;;
76210;SDS011;65003;49.518;11.280;2023-02-01T14:09:52;13.37;;;3.67;;
76210;SDS011;65003;49.518;11.280;2023-02-01T14:17:47;7.37;;;2.60;;
76210;SDS011;65003;49.518;11.280;2023-02-01T14:22:59;5.57;;;2.50;;
76210;SDS011;65003;49.518;11.280;2023-02-01T14:25:19;10.40;;;2.70;;
76210;SDS011;65003;49.518;11.280;2023-02-01T14:27:45;11.07;;;2.43;;
76210;SDS011;65003;49.518;11.280;2023-02-01T14:30:14;9.80;;;2.87;;
76210;SDS011;65003;49.518;11.280;2023-02-01T14:32:39;7.13;;;2.17;;
76210;SDS011;65003;49.518;11.280;2023-02-01T14:35:06;6.90;;;2.03;;
76210;SDS011;65003;49.518;11.280;2023-02-01T14:37:33;6.53;;;2.13;;
76210;SDS011;65003;49.518;11.280;2023-02-01T14:39:59;6.23;;;2.20;;
76210;SDS011;65003;49.518;11.280;2023-02-01T14:42:28;9.77;;;2.47;;
76210;SDS011;65003;49.518;11.280;2023-02-01T14:44:54;7.17;;;2.20;;
76210;SDS011;65003;49.518;11.280;2023-02-01T14:47:28;8.50;;;2.47;;
76210;SDS011;65003;49.518;11.280;2023-02-01T14:49:56;8.53;;;2.50;;
76210;SDS011;65003;49.518;11.280;2023-02-01T14:52:23;8.83;;;2.73;;
76210;SDS011;65003;49.518;11.280;2023-02-01T14:54:52;5.27;;;1.77;;
76210;SDS011;65003;49.518;11.280;2023-02-01T14:57:16;6.30;;;2.53;;
76210;SDS011;65003;49.518;11.280;2023-02-01T14:59:43;8.67;;;1.77;;
76210;SDS011;65003;49.518;11.280;2023-02-01T15:02:17;3.23;;;1.40;;
76210;SDS011;65003;49.518;11.280;2023-02-01T15:04:43;13.27;;;2.60;;
76210;SDS011;65003;49.518;11.280;2023-02-01T15:07:11;7.67;;;2.23;;
76210;SDS011;65003;49.518;11.280;2023-02-01T15:09:38;7.70;;;1.90;;
76210;SDS011;65003;49.518;11.280;2023-02-01T15:12:13;5.83;;;1.93;;
76210;SDS011;65003;49.518;11.280;2023-02-01T15:14:47;9.57;;;2.47;;
76210;SDS011;65003;49.518;11.280;2023-02-01T15:17:20;7.57;;;2.27;;
76210;SDS011;65003;49.518;11.280;2023-02-01T15:22:19;7.17;;;1.93;;
76210;SDS011;65003;49.518;11.280;2023-02-01T15:24:51;6.13;;;2.13;;
76210;SDS011;65003;49.518;11.280;2023-02-01T15:27:12;4.13;;;2.40;;
76210;SDS011;65003;49.518;11.280;2023-02-01T15:29:38;8.10;;;3.40;;
76210;SDS011;65003;49.518;11.280;2023-02-01T15:32:05;10.97;;;2.60;;
76210;SDS011;65003;49.518;11.280;2023-02-01T15:37:12;8.90;;;3.20;;
76210;SDS011;65003;49.518;11.280;2023-02-01T15:39:37;7.77;;;3.40;;
76210;SDS011;65003;49.518;11.280;2023-02-01T15:42:10;6.80;;;2.33;;